Time;durP1;ratioP1;P1;durP2;ratioP2;P2;SDS_P1;SDS_P2;PMS_P1;PMS_P2;Temp;Humidity;BMP_temperature;BMP_pressure;BME280_temperature;BME280_humidity;BME280_pressure;Samples;Min_cycle;Max_cycle;Signal;HPM_P1;HPM_P2
2022/10/22 00:00:28;;;;;;;;;;;14.10;99.90;;;;;;5064024;28;19925;-76
2022/10/22 00:02:56;;;;;;;;;;;14.10;99.90;;;;;;5069412;28;20263;-76
2022/10/22 00:05:23;;;;;;;;;;;14.10;99.90;;;;;;5063721;28;19964;-75
2022/10/22 00:07:50;;;;;;;;;;;14.20;99.90;;;;;;5063502;28;19928;-76
2022/10/22 00:10:17;;;;;;;;;;;14.10;99.90;;;;;;5066788;28;20034;-76
2022/10/22 00:12:44;;;;;;;;;;;14.10;99.90;;;;;;5059029;28;20453;-76
2022/10/22 00:15:11;;;;;;;;;;;14.10;99.90;;;;;;5065653;28;19974;-76
2022/10/22 00:17:38;;;;;;;;;;;14.00;99.90;;;;;;5062265;28;19930;-76
2022/10/22 00:20:07;;;;;;;;;;;14.00;99.90;;;;;;5061472;28;19925;-76
2022/10/22 00:22:34;;;;;;;;;;;14.00;99.90;;;;;;5067469;28;20386;-76
2022/10/22 00:25:01;;;;;;;;;;;14.00;99.90;;;;;;5096184;28;19928;-76
2022/10/22 00:27:28;;;;;;;;;;;14.00;99.90;;;;;;5064287;28;19976;-75
2022/10/22 00:29:54;;;;;;;;;;;14.00;99.90;;;;;;5063091;28;20031;-76
2022/10/22 00:32:21;;;;;;;;;;;13.90;99.90;;;;;;5066212;28;19959;-76
2022/10/22 00:34:48;;;;;;;;;;;13.90;99.90;;;;;;5065898;28;20457;-76
2022/10/22 00:37:16;;;;;;;;;;;13.90;99.90;;;;;;5064394;28;20110;-76
2022/10/22 00:39:43;;;;;;;;;;;13.90;99.90;;;;;;5064429;28;20030;-76
2022/10/22 00:42:12;;;;;;;;;;;13.90;99.90;;;;;;5059640;28;20647;-76
2022/10/22 00:45:03;;;;;;;;;;;13.90;99.90;;;;;;5067115;28;20336;-76
2022/10/22 00:47:31;;;;;;;;;;;13.90;99.90;;;;;;5065607;28;19976;-76
2022/10/22 00:49:58;;;;;;;;;;;13.90;99.90;;;;;;5066676;28;20052;-76
2022/10/22 00:52:27;;;;;;;;;;;13.90;99.90;;;;;;5093503;27;19950;-75
2022/10/22 00:54:54;;;;;;;;;;;13.90;99.90;;;;;;5065277;28;19932;-76
2022/10/22 00:57:22;;;;;;;;;;;13.90;99.90;;;;;;5063801;28;20019;-76
2022/10/22 00:59:49;;;;;;;;;;;13.80;99.90;;;;;;5061075;28;19956;-76
2022/10/22 01:02:16;;;;;;;;;;;13.80;99.90;;;;;;5070955;28;19932;-76
2022/10/22 01:04:42;;;;;;;;;;;13.80;99.90;;;;;;5068160;28;20386;-76
2022/10/22 01:07:12;;;;;;;;;;;13.80;99.90;;;;;;5066544;28;19960;-75
2022/10/22 01:09:42;;;;;;;;;;;13.80;99.90;;;;;;5060100;28;19956;-74
2022/10/22 01:12:13;;;;;;;;;;;13.80;99.90;;;;;;5080464;28;20458;-76
2022/10/22 01:14:46;;;;;;;;;;;13.80;99.90;;;;;;5067282;28;20461;-76
2022/10/22 01:17:19;;;;;;;;;;;13.80;99.90;;;;;;5064206;28;20007;-76
2022/10/22 01:19:53;;;;;;;;;;;13.80;99.90;;;;;;5065131;28;19970;-76
2022/10/22 01:22:22;;;;;;;;;;;13.80;99.90;;;;;;5063856;28;20385;-76
2022/10/22 01:25:06;;;;;;;;;;;13.70;99.90;;;;;;5065291;28;19925;-76
2022/10/22 01:27:40;;;;;;;;;;;13.80;99.90;;;;;;5060079;28;20041;-75
2022/10/22 01:30:09;;;;;;;;;;;13.70;99.90;;;;;;5067866;28;19928;-76
2022/10/22 01:32:38;;;;;;;;;;;13.70;99.90;;;;;;5066733;28;20411;-76
2022/10/22 01:35:07;;;;;;;;;;;13.70;99.90;;;;;;5058798;28;20007;-76
2022/10/22 01:37:36;;;;;;;;;;;13.70;99.90;;;;;;5067814;28;20023;-76
2022/10/22 01:40:05;;;;;;;;;;;13.70;99.90;;;;;;5064004;28;20406;-76
2022/10/22 01:42:32;;;;;;;;;;;13.70;99.90;;;;;;5054629;28;19925;-76
2022/10/22 01:44:59;;;;;;;;;;;13.60;99.90;;;;;;5061900;28;20342;-76
2022/10/22 01:47:33;;;;;;;;;;;13.60;99.90;;;;;;5069303;28;20621;-76
2022/10/22 01:50:06;;;;;;;;;;;13.60;99.90;;;;;;5062066;28;19924;-76
2022/10/22 01:52:40;;;;;;;;;;;13.60;99.90;;;;;;5061045;28;20379;-75
2022/10/22 01:55:14;;;;;;;;;;;13.60;99.90;;;;;;5064690;28;19971;-76
2022/10/22 01:57:43;;;;;;;;;;;13.60;99.90;;;;;;5065703;28;19925;-76
2022/10/22 02:00:14;;;;;;;;;;;13.60;99.90;;;;;;5063935;28;20003;-76
2022/10/22 02:02:47;;;;;;;;;;;13.60;99.90;;;;;;5059451;28;19982;-76
2022/10/22 02:05:16;;;;;;;;;;;13.60;99.90;;;;;;5069767;28;19963;-76
2022/10/22 02:07:44;;;;;;;;;;;13.60;99.90;;;;;;5064750;28;19937;-76
2022/10/22 02:10:14;;;;;;;;;;;13.60;99.90;;;;;;5059695;28;19951;-76
2022/10/22 02:12:43;;;;;;;;;;;13.50;99.90;;;;;;5098657;27;19938;-75
2022/10/22 02:15:10;;;;;;;;;;;13.50;99.90;;;;;;5064835;28;19988;-76
2022/10/22 02:17:38;;;;;;;;;;;13.50;99.90;;;;;;5068166;28;20033;-76
2022/10/22 02:20:09;;;;;;;;;;;13.50;99.90;;;;;;5065848;28;20027;-76
2022/10/22 02:22:38;;;;;;;;;;;13.50;99.90;;;;;;5069967;28;19928;-76
2022/10/22 02:25:07;;;;;;;;;;;13.50;99.90;;;;;;5069106;28;20459;-76
2022/10/22 02:27:39;;;;;;;;;;;13.50;99.90;;;;;;5069962;28;19985;-76
2022/10/22 02:30:07;;;;;;;;;;;13.50;99.90;;;;;;5062730;28;19966;-75
2022/10/22 02:32:36;;;;;;;;;;;13.50;99.90;;;;;;5067112;28;20385;-76
2022/10/22 02:35:04;;;;;;;;;;;13.50;99.90;;;;;;5098600;28;19932;-76
2022/10/22 02:37:32;;;;;;;;;;;13.40;99.90;;;;;;5065606;28;20007;-76
2022/10/22 02:39:59;;;;;;;;;;;13.40;99.90;;;;;;5103544;27;20346;-76
2022/10/22 02:42:26;;;;;;;;;;;13.40;99.90;;;;;;5067495;28;20019;-75
2022/10/22 02:44:52;;;;;;;;;;;13.40;99.90;;;;;;5070977;28;19931;-75
2022/10/22 02:47:19;;;;;;;;;;;13.40;99.90;;;;;;5062133;28;19937;-76
2022/10/22 02:49:46;;;;;;;;;;;13.40;99.90;;;;;;5096915;27;20367;-76
2022/10/22 02:52:13;;;;;;;;;;;13.40;99.90;;;;;;5069819;28;19928;-76
2022/10/22 02:54:41;;;;;;;;;;;13.40;99.90;;;;;;5069604;28;19924;-76
2022/10/22 02:57:08;;;;;;;;;;;13.40;99.90;;;;;;5067163;28;20019;-76
2022/10/22 02:59:35;;;;;;;;;;;13.40;99.90;;;;;;5066432;28;19971;-76
2022/10/22 03:02:01;;;;;;;;;;;13.40;99.90;;;;;;5068469;28;20228;-76
2022/10/22 03:04:28;;;;;;;;;;;13.40;99.90;;;;;;5061027;28;20402;-76
2022/10/22 03:06:55;;;;;;;;;;;13.40;99.90;;;;;;5068618;28;19928;-76
2022/10/22 03:09:22;;;;;;;;;;;13.40;99.90;;;;;;5066066;28;20341;-76
2022/10/22 03:11:50;;;;;;;;;;;13.40;99.90;;;;;;5061022;28;19924;-76
2022/10/22 03:14:17;;;;;;;;;;;13.30;99.90;;;;;;5064410;28;19939;-76
2022/10/22 03:16:43;;;;;;;;;;;13.30;99.90;;;;;;5071894;28;19931;-76
2022/10/22 03:19:10;;;;;;;;;;;13.30;99.90;;;;;;5070802;28;20031;-76
2022/10/22 03:21:38;;;;;;;;;;;13.30;99.90;;;;;;5061866;28;19924;-76
2022/10/22 03:24:07;;;;;;;;;;;13.30;99.90;;;;;;5067801;28;20438;-76
2022/10/22 03:26:34;;;;;;;;;;;13.30;99.90;;;;;;5064033;28;20022;-76
2022/10/22 03:29:03;;;;;;;;;;;13.30;99.90;;;;;;5068754;28;20011;-76
2022/10/22 03:31:29;;;;;;;;;;;13.30;99.90;;;;;;5064401;28;19939;-76
2022/10/22 03:33:56;;;;;;;;;;;13.30;99.90;;;;;;5067369;28;19925;-76
2022/10/22 03:36:23;;;;;;;;;;;13.20;99.90;;;;;;5068049;28;19961;-76
2022/10/22 03:38:50;;;;;;;;;;;13.20;99.90;;;;;;5065541;28;20007;-76
2022/10/22 03:41:17;;;;;;;;;;;13.20;99.90;;;;;;5063335;28;19932;-76
2022/10/22 03:43:48;;;;;;;;;;;13.20;99.90;;;;;;5065520;28;19924;-76
2022/10/22 03:46:16;;;;;;;;;;;13.20;99.90;;;;;;5083538;28;20007;-76
2022/10/22 03:48:43;;;;;;;;;;;13.20;99.90;;;;;;5070007;28;19971;-76
2022/10/22 03:51:10;;;;;;;;;;;13.20;99.90;;;;;;5055992;28;19924;-76
2022/10/22 03:53:37;;;;;;;;;;;13.20;99.90;;;;;;5069559;28;20593;-76
2022/10/22 03:56:07;;;;;;;;;;;13.20;99.90;;;;;;5072577;28;20430;-75
2022/10/22 03:58:34;;;;;;;;;;;13.20;99.90;;;;;;5062703;28;20469;-76
2022/10/22 04:01:04;;;;;;;;;;;13.20;99.90;;;;;;5069615;28;19938;-76
2022/10/22 04:03:32;;;;;;;;;;;13.20;99.90;;;;;;5070774;28;20019;-76
2022/10/22 04:06:01;;;;;;;;;;;13.20;99.90;;;;;;5065333;28;19955;-76
2022/10/22 04:08:27;;;;;;;;;;;13.10;99.90;;;;;;5065900;28;19935;-76
2022/10/22 04:10:54;;;;;;;;;;;13.10;99.90;;;;;;5065154;28;19990;-76
2022/10/22 04:13:21;;;;;;;;;;;13.10;99.90;;;;;;5064160;28;19925;-75
2022/10/22 04:15:48;;;;;;;;;;;13.10;99.90;;;;;;5065427;28;20023;-76
2022/10/22 04:18:14;;;;;;;;;;;13.10;99.90;;;;;;5064611;28;19924;-76
2022/10/22 04:20:43;;;;;;;;;;;13.10;99.90;;;;;;5067502;28;19931;-76
2022/10/22 04:23:09;;;;;;;;;;;13.10;99.90;;;;;;5063492;28;20364;-76
2022/10/22 04:25:36;;;;;;;;;;;13.10;99.90;;;;;;5065611;28;19929;-76
2022/10/22 04:28:03;;;;;;;;;;;13.10;99.90;;;;;;5098597;27;19933;-76
2022/10/22 04:30:30;;;;;;;;;;;13.10;99.90;;;;;;5066051;28;19924;-76
2022/10/22 04:32:56;;;;;;;;;;;13.10;99.90;;;;;;5068482;28;19986;-76
2022/10/22 04:35:23;;;;;;;;;;;13.20;99.90;;;;;;5059187;28;19925;-76
2022/10/22 04:37:51;;;;;;;;;;;13.10;99.90;;;;;;5060538;28;19998;-76
2022/10/22 04:40:18;;;;;;;;;;;13.10;99.90;;;;;;5065866;28;19931;-75
2022/10/22 04:42:45;;;;;;;;;;;13.10;99.90;;;;;;5065744;28;20399;-76
2022/10/22 04:45:12;;;;;;;;;;;13.10;99.90;;;;;;5069749;28;20398;-76
2022/10/22 04:47:38;;;;;;;;;;;13.10;99.90;;;;;;5080621;28;20011;-76
2022/10/22 04:50:06;;;;;;;;;;;13.10;99.90;;;;;;5064527;28;20688;-76
2022/10/22 04:52:33;;;;;;;;;;;13.10;99.90;;;;;;5065204;28;20329;-76
2022/10/22 04:55:01;;;;;;;;;;;13.00;99.90;;;;;;5069453;28;19973;-76
2022/10/22 04:57:29;;;;;;;;;;;13.00;99.90;;;;;;5060696;28;20027;-76
2022/10/22 04:59:56;;;;;;;;;;;13.00;99.90;;;;;;5068797;28;19932;-76
2022/10/22 05:02:22;;;;;;;;;;;13.10;99.90;;;;;;5065912;28;19929;-76
2022/10/22 05:04:49;;;;;;;;;;;13.00;99.90;;;;;;5062075;28;19932;-75
2022/10/22 05:07:16;;;;;;;;;;;13.00;99.90;;;;;;5063073;28;20284;-76
2022/10/22 05:09:43;;;;;;;;;;;13.00;99.90;;;;;;5062077;28;19971;-75
2022/10/22 05:12:11;;;;;;;;;;;13.00;99.90;;;;;;5065031;28;20015;-76
2022/10/22 05:14:38;;;;;;;;;;;13.00;99.90;;;;;;5067455;28;19986;-76
2022/10/22 05:17:05;;;;;;;;;;;13.00;99.90;;;;;;5066900;28;20021;-76
2022/10/22 05:19:32;;;;;;;;;;;13.00;99.90;;;;;;5078840;28;19932;-75
2022/10/22 05:22:00;;;;;;;;;;;12.90;99.90;;;;;;5058671;28;19925;-76
2022/10/22 05:24:27;;;;;;;;;;;12.90;99.90;;;;;;5065938;28;20457;-76
2022/10/22 05:26:55;;;;;;;;;;;13.00;99.90;;;;;;5062637;28;19924;-75
2022/10/22 05:29:23;;;;;;;;;;;12.90;99.90;;;;;;5066281;28;19932;-75
2022/10/22 05:31:50;;;;;;;;;;;13.00;99.90;;;;;;5061774;28;19924;-76
2022/10/22 05:34:17;;;;;;;;;;;12.90;99.90;;;;;;5065187;28;20522;-77
2022/10/22 05:36:44;;;;;;;;;;;13.00;99.90;;;;;;5062403;28;19924;-75
2022/10/22 05:39:11;;;;;;;;;;;12.90;99.90;;;;;;5056576;28;19960;-76
2022/10/22 05:41:37;;;;;;;;;;;12.90;99.90;;;;;;5074744;28;19925;-75
2022/10/22 05:44:05;;;;;;;;;;;13.00;99.90;;;;;;5069973;28;19924;-76
2022/10/22 05:46:35;;;;;;;;;;;12.90;99.90;;;;;;5064112;28;19998;-76
2022/10/22 05:49:03;;;;;;;;;;;12.90;99.90;;;;;;5065752;28;19936;-76
2022/10/22 05:51:31;;;;;;;;;;;12.90;99.90;;;;;;5067538;28;20480;-76
2022/10/22 05:53:59;;;;;;;;;;;12.90;99.90;;;;;;5058233;28;20028;-76
2022/10/22 05:56:26;;;;;;;;;;;12.90;99.90;;;;;;5061483;28;19963;-76
2022/10/22 05:58:53;;;;;;;;;;;12.90;99.90;;;;;;5069655;28;19928;-75
2022/10/22 06:01:21;;;;;;;;;;;12.90;99.90;;;;;;5066011;28;19924;-77
2022/10/22 06:03:49;;;;;;;;;;;12.90;99.90;;;;;;5068592;28;19931;-80
2022/10/22 06:06:18;;;;;;;;;;;12.90;99.90;;;;;;5067712;28;20023;-79
2022/10/22 06:08:46;;;;;;;;;;;12.90;99.90;;;;;;5068629;28;19925;-78
2022/10/22 06:11:12;;;;;;;;;;;12.90;99.90;;;;;;5057843;28;20299;-80
2022/10/22 06:13:39;;;;;;;;;;;12.90;99.90;;;;;;5067007;28;20002;-78
2022/10/22 06:16:06;;;;;;;;;;;12.90;99.90;;;;;;5065860;28;20483;-78
2022/10/22 06:18:33;;;;;;;;;;;12.90;99.90;;;;;;5067624;28;20023;-78
2022/10/22 06:21:05;;;;;;;;;;;12.90;99.90;;;;;;5067238;28;20034;-78
2022/10/22 06:23:32;;;;;;;;;;;12.90;99.90;;;;;;5066571;28;19963;-77
2022/10/22 06:25:59;;;;;;;;;;;12.80;99.90;;;;;;5060581;28;19929;-77
2022/10/22 06:28:26;;;;;;;;;;;12.80;99.90;;;;;;5088511;28;20004;-78
2022/10/22 06:30:53;;;;;;;;;;;12.80;99.90;;;;;;5058990;28;19935;-79
2022/10/22 06:33:20;;;;;;;;;;;12.80;99.90;;;;;;5077822;28;19950;-78
2022/10/22 06:35:47;;;;;;;;;;;12.90;99.90;;;;;;5070212;28;20031;-77
2022/10/22 06:38:15;;;;;;;;;;;12.90;99.90;;;;;;5064151;28;20352;-79
2022/10/22 06:40:43;;;;;;;;;;;13.00;99.90;;;;;;5062878;28;19975;-78
2022/10/22 06:43:10;;;;;;;;;;;13.00;99.90;;;;;;5060012;28;20463;-79
2022/10/22 06:45:37;;;;;;;;;;;13.00;99.90;;;;;;5058862;28;19956;-78
2022/10/22 06:48:04;;;;;;;;;;;13.00;99.90;;;;;;5058931;28;19939;-78
2022/10/22 06:50:31;;;;;;;;;;;13.00;99.90;;;;;;5065837;28;19929;-86
2022/10/22 06:52:58;;;;;;;;;;;13.00;99.90;;;;;;5062634;28;19932;-80
2022/10/22 06:55:26;;;;;;;;;;;13.10;99.90;;;;;;5063918;28;19925;-75
2022/10/22 06:57:54;;;;;;;;;;;13.10;99.90;;;;;;5055129;28;19924;-76
2022/10/22 07:00:21;;;;;;;;;;;13.00;99.90;;;;;;5062880;28;20006;-76
2022/10/22 07:02:51;;;;;;;;;;;13.00;99.90;;;;;;5067605;28;20450;-76
2022/10/22 07:05:18;;;;;;;;;;;13.00;99.90;;;;;;5063605;28;19977;-76
2022/10/22 07:07:45;;;;;;;;;;;13.00;99.90;;;;;;5062414;28;19925;-76
2022/10/22 07:10:11;;;;;;;;;;;13.10;99.90;;;;;;5060166;28;19982;-83
2022/10/22 07:12:40;;;;;;;;;;;13.00;99.90;;;;;;5059693;28;20005;-72
2022/10/22 07:15:07;;;;;;;;;;;13.00;99.90;;;;;;5059831;28;20026;-76
2022/10/22 07:17:33;;;;;;;;;;;13.10;99.90;;;;;;5053779;28;19968;-77
2022/10/22 07:20:00;;;;;;;;;;;13.00;99.90;;;;;;5060669;28;19932;-84
2022/10/22 07:22:27;;;;;;;;;;;13.00;99.90;;;;;;5056794;28;19929;-75
2022/10/22 07:24:54;;;;;;;;;;;13.00;99.90;;;;;;5051942;28;19999;-76
2022/10/22 07:27:21;;;;;;;;;;;13.10;99.90;;;;;;5059185;28;20402;-75
2022/10/22 07:29:49;;;;;;;;;;;13.00;99.90;;;;;;5058043;28;20432;-76
2022/10/22 07:32:17;;;;;;;;;;;13.00;99.90;;;;;;5056844;28;19925;-76
2022/10/22 07:34:44;;;;;;;;;;;13.00;99.90;;;;;;5052572;28;19929;-74
2022/10/22 07:37:11;;;;;;;;;;;13.00;99.90;;;;;;5059156;28;20023;-76
2022/10/22 07:39:38;;;;;;;;;;;13.00;99.90;;;;;;5092242;28;20055;-75
2022/10/22 07:42:04;;;;;;;;;;;13.10;99.90;;;;;;5053603;28;19980;-76
2022/10/22 07:44:31;;;;;;;;;;;13.10;99.90;;;;;;5057579;28;19924;-75
2022/10/22 07:46:59;;;;;;;;;;;13.10;99.90;;;;;;5056884;28;19924;-76
2022/10/22 07:49:26;;;;;;;;;;;13.10;99.90;;;;;;5058099;28;20013;-80
2022/10/22 07:51:53;;;;;;;;;;;13.00;99.90;;;;;;5056940;28;19925;-75
2022/10/22 07:54:20;;;;;;;;;;;13.00;99.90;;;;;;5057664;28;19933;-76
2022/10/22 07:56:46;;;;;;;;;;;13.10;99.90;;;;;;5054855;28;19970;-74
2022/10/22 07:59:13;;;;;;;;;;;13.00;99.90;;;;;;5058374;28;19925;-76
2022/10/22 08:01:40;;;;;;;;;;;13.00;99.90;;;;;;5049537;28;19955;-78
2022/10/22 08:04:08;;;;;;;;;;;13.00;99.90;;;;;;5080936;27;19932;-78
2022/10/22 08:06:35;;;;;;;;;;;13.00;99.90;;;;;;5047886;28;19940;-76
2022/10/22 08:09:02;;;;;;;;;;;13.00;99.90;;;;;;5048097;28;20309;-76
2022/10/22 08:11:29;;;;;;;;;;;13.00;99.90;;;;;;5055041;28;20029;-75
2022/10/22 08:13:56;;;;;;;;;;;13.00;99.90;;;;;;5048617;28;19932;-77
2022/10/22 08:16:23;;;;;;;;;;;13.00;99.90;;;;;;5055670;28;19935;-80
2022/10/22 08:18:50;;;;;;;;;;;13.00;99.90;;;;;;5066133;28;19933;-74
2022/10/22 08:21:18;;;;;;;;;;;13.00;99.90;;;;;;5057902;28;19939;-84
2022/10/22 08:23:45;;;;;;;;;;;13.00;99.90;;;;;;5060485;28;20350;-72
2022/10/22 08:26:12;;;;;;;;;;;13.00;99.90;;;;;;5060854;28;19942;-75
2022/10/22 08:28:39;;;;;;;;;;;13.10;99.90;;;;;;5050229;28;20027;-75
2022/10/22 08:31:07;;;;;;;;;;;13.00;99.90;;;;;;5047274;28;20020;-74
2022/10/22 08:33:34;;;;;;;;;;;13.00;99.90;;;;;;5057614;28;19924;-74
2022/10/22 08:36:00;;;;;;;;;;;13.00;99.90;;;;;;5049591;28;20407;-73
2022/10/22 08:38:30;;;;;;;;;;;13.00;99.90;;;;;;5055577;28;20015;-74
2022/10/22 08:41:00;;;;;;;;;;;13.00;99.90;;;;;;5057354;28;19994;-74
2022/10/22 08:43:35;;;;;;;;;;;13.00;99.90;;;;;;5054820;28;19982;-75
2022/10/22 08:46:09;;;;;;;;;;;13.10;99.90;;;;;;5053162;28;19975;-73
2022/10/22 08:48:41;;;;;;;;;;;13.00;99.90;;;;;;5052006;28;20597;-72
2022/10/22 08:51:11;;;;;;;;;;;13.00;99.90;;;;;;5051879;28;19932;-74
2022/10/22 08:53:42;;;;;;;;;;;13.10;99.90;;;;;;5052522;28;19928;-74
2022/10/22 08:56:10;;;;;;;;;;;13.00;99.90;;;;;;5048672;28;20400;-71
2022/10/22 08:58:40;;;;;;;;;;;13.10;99.90;;;;;;5045934;28;20019;-72
2022/10/22 09:01:10;;;;;;;;;;;13.00;99.90;;;;;;5053798;28;19939;-72
2022/10/22 09:03:45;;;;;;;;;;;13.10;99.90;;;;;;5048335;28;20061;-71
2022/10/22 09:06:14;;;;;;;;;;;13.10;99.90;;;;;;5058675;28;19971;-71
2022/10/22 09:08:43;;;;;;;;;;;13.10;99.90;;;;;;5064059;28;20547;-72
2022/10/22 09:11:16;;;;;;;;;;;13.10;99.90;;;;;;5057212;28;20412;-71
2022/10/22 09:13:45;;;;;;;;;;;13.10;99.90;;;;;;5053465;28;19925;-71
2022/10/22 09:16:15;;;;;;;;;;;13.10;99.90;;;;;;5055956;28;19978;-72
2022/10/22 09:18:44;;;;;;;;;;;13.10;99.90;;;;;;5058156;28;19951;-72
2022/10/22 09:21:16;;;;;;;;;;;13.20;99.90;;;;;;5066188;28;19935;-70
2022/10/22 09:23:52;;;;;;;;;;;13.20;99.90;;;;;;5057747;28;19928;-72
2022/10/22 09:26:18;;;;;;;;;;;13.20;99.90;;;;;;5067270;28;19967;-72
2022/10/22 09:28:49;;;;;;;;;;;13.20;99.90;;;;;;5066678;28;20007;-72
2022/10/22 09:31:16;;;;;;;;;;;13.20;99.90;;;;;;5062786;28;20444;-72
2022/10/22 09:33:44;;;;;;;;;;;13.20;99.90;;;;;;5066673;28;19924;-71
2022/10/22 09:36:13;;;;;;;;;;;13.20;99.90;;;;;;5070500;28;20400;-70
2022/10/22 09:38:44;;;;;;;;;;;13.20;99.90;;;;;;5068533;28;20386;-72
2022/10/22 09:41:13;;;;;;;;;;;13.20;99.90;;;;;;5066980;28;19942;-74
2022/10/22 09:43:40;;;;;;;;;;;13.20;99.90;;;;;;5066600;28;20032;-71
2022/10/22 09:46:08;;;;;;;;;;;13.30;99.90;;;;;;5071572;28;20011;-70
2022/10/22 09:48:45;;;;;;;;;;;13.30;99.90;;;;;;5069032;28;20007;-71
2022/10/22 09:51:15;;;;;;;;;;;13.30;99.90;;;;;;5071702;28;19924;-71
2022/10/22 09:53:42;;;;;;;;;;;13.30;99.90;;;;;;5073217;28;20019;-90
2022/10/22 09:56:10;;;;;;;;;;;13.30;99.90;;;;;;5069714;28;19929;-74
2022/10/22 09:58:48;;;;;;;;;;;13.30;99.90;;;;;;5058914;28;20028;-88
2022/10/22 10:01:18;;;;;;;;;;;13.30;99.90;;;;;;5068875;28;20446;-73
2022/10/22 10:03:47;;;;;;;;;;;13.30;99.90;;;;;;5080653;28;20015;-73
2022/10/22 10:06:17;;;;;;;;;;;13.30;99.90;;;;;;5058184;28;20402;-72
2022/10/22 10:08:44;;;;;;;;;;;13.30;99.90;;;;;;5098835;27;19924;-73
2022/10/22 10:11:15;;;;;;;;;;;13.30;99.90;;;;;;5062514;28;19944;-73
2022/10/22 10:13:47;;;;;;;;;;;13.40;99.90;;;;;;5102906;27;19974;-73
2022/10/22 10:16:23;;;;;;;;;;;13.40;99.90;;;;;;5061957;28;20405;-73
2022/10/22 10:18:56;;;;;;;;;;;13.40;99.90;;;;;;5064848;28;19925;-73
2022/10/22 10:21:27;;;;;;;;;;;13.40;99.90;;;;;;5061797;28;19967;-73
2022/10/22 10:23:57;;;;;;;;;;;13.40;99.90;;;;;;5066212;28;20649;-73
2022/10/22 10:26:27;;;;;;;;;;;13.40;99.90;;;;;;5061761;28;20019;-73
2022/10/22 10:29:04;;;;;;;;;;;13.40;99.90;;;;;;5058556;28;19942;-73
2022/10/22 10:31:36;;;;;;;;;;;13.40;99.90;;;;;;5060633;28;19933;-73
2022/10/22 10:34:08;;;;;;;;;;;13.50;99.90;;;;;;5055228;28;20358;-73
2022/10/22 10:36:40;;;;;;;;;;;13.50;99.90;;;;;;5056023;28;19924;-73
2022/10/22 10:39:10;;;;;;;;;;;13.50;99.90;;;;;;5060086;28;20019;-73
2022/10/22 10:41:48;;;;;;;;;;;13.50;99.90;;;;;;5058693;28;20455;-73
2022/10/22 10:44:22;;;;;;;;;;;13.50;99.90;;;;;;5060611;28;19938;-84
2022/10/22 10:46:52;;;;;;;;;;;13.60;99.90;;;;;;5053423;28;19936;-74
2022/10/22 10:49:21;;;;;;;;;;;13.60;99.90;;;;;;5058231;28;19929;-73
2022/10/22 10:51:53;;;;;;;;;;;13.60;99.90;;;;;;5058974;28;19942;-76
2022/10/22 10:54:25;;;;;;;;;;;13.60;99.90;;;;;;5064090;28;20019;-72
2022/10/22 10:56:55;;;;;;;;;;;13.60;99.90;;;;;;5059783;28;19935;-72
2022/10/22 10:59:28;;;;;;;;;;;13.60;99.90;;;;;;5093731;27;20015;-80
2022/10/22 11:02:14;;;;;;;;;;;13.60;99.90;;;;;;5057418;28;19947;-73
2022/10/22 11:04:50;;;;;;;;;;;13.60;99.90;;;;;;5058454;28;19932;-74
2022/10/22 11:07:19;;;;;;;;;;;13.70;99.90;;;;;;5060216;28;20433;-77
2022/10/22 11:09:48;;;;;;;;;;;13.70;99.90;;;;;;5051714;28;20430;-71
2022/10/22 11:12:17;;;;;;;;;;;13.70;99.90;;;;;;5056796;28;20027;-87
2022/10/22 11:14:52;;;;;;;;;;;13.70;99.90;;;;;;5048809;28;20455;-75
2022/10/22 11:17:20;;;;;;;;;;;13.70;99.90;;;;;;5055467;28;19931;-75
2022/10/22 11:19:50;;;;;;;;;;;13.70;99.90;;;;;;5056441;28;20419;-75
2022/10/22 11:22:21;;;;;;;;;;;13.80;99.90;;;;;;5059693;28;19998;-74
2022/10/22 11:24:51;;;;;;;;;;;13.80;99.90;;;;;;5060313;28;20356;-74
2022/10/22 11:27:24;;;;;;;;;;;13.80;99.90;;;;;;5057271;28;20287;-74
2022/10/22 11:29:55;;;;;;;;;;;13.80;99.90;;;;;;5063995;28;19937;-74
2022/10/22 11:32:25;;;;;;;;;;;13.80;99.90;;;;;;5060399;28;19994;-74
2022/10/22 11:34:54;;;;;;;;;;;13.90;99.90;;;;;;5051001;28;19932;-74
2022/10/22 11:37:21;;;;;;;;;;;13.90;99.90;;;;;;5056328;28;20081;-74
2022/10/22 11:39:50;;;;;;;;;;;13.90;99.90;;;;;;5053707;28;19932;-74
2022/10/22 11:42:19;;;;;;;;;;;13.90;99.90;;;;;;5070711;28;19925;-74
2022/10/22 11:44:47;;;;;;;;;;;13.90;99.90;;;;;;5055600;28;19964;-73
2022/10/22 11:47:17;;;;;;;;;;;14.00;99.90;;;;;;5060157;28;20325;-73
2022/10/22 11:49:45;;;;;;;;;;;14.00;99.90;;;;;;5047725;28;20551;-73
2022/10/22 11:52:26;;;;;;;;;;;14.00;99.90;;;;;;5051290;28;19928;-75
2022/10/22 11:54:55;;;;;;;;;;;14.00;99.90;;;;;;5056524;28;19924;-74
2022/10/22 11:57:25;;;;;;;;;;;14.10;99.90;;;;;;5051251;28;20420;-74
2022/10/22 11:59:53;;;;;;;;;;;14.10;99.90;;;;;;5052864;28;19936;-73
2022/10/22 12:02:30;;;;;;;;;;;14.20;99.90;;;;;;5054278;28;19925;-72
2022/10/22 12:05:11;;;;;;;;;;;14.50;99.90;;;;;;5053650;28;19936;-77
2022/10/22 12:07:50;;;;;;;;;;;15.20;99.90;;;;;;5053182;28;20109;-73
2022/10/22 12:10:19;;;;;;;;;;;15.30;99.90;;;;;;5056087;28;20376;-74
2022/10/22 12:12:52;;;;;;;;;;;15.60;99.90;;;;;;5062066;28;19928;-75
2022/10/22 12:15:23;;;;;;;;;;;15.80;99.90;;;;;;5056559;28;19956;-75
2022/10/22 12:17:56;;;;;;;;;;;15.60;99.90;;;;;;5051466;28;20415;-75
2022/10/22 12:20:24;;;;;;;;;;;15.50;99.90;;;;;;5051603;28;20789;-77
2022/10/22 12:22:52;;;;;;;;;;;15.30;99.90;;;;;;5055212;28;20468;-76
2022/10/22 12:25:21;;;;;;;;;;;15.20;99.90;;;;;;5054766;28;19955;-76
2022/10/22 12:27:50;;;;;;;;;;;15.10;99.90;;;;;;5054254;28;19925;-76
2022/10/22 12:30:20;;;;;;;;;;;15.10;99.90;;;;;;5057191;28;20160;-78
2022/10/22 12:32:46;;;;;;;;;;;15.10;99.90;;;;;;5054938;28;20018;-78
2022/10/22 12:35:16;;;;;;;;;;;15.00;99.90;;;;;;5054131;28;20013;-77
2022/10/22 12:37:43;;;;;;;;;;;15.00;99.90;;;;;;5051479;28;19976;-77
2022/10/22 12:40:17;;;;;;;;;;;15.00;99.90;;;;;;5092910;28;20270;-73
2022/10/22 12:42:47;;;;;;;;;;;15.00;99.90;;;;;;5077575;28;21318;-76
2022/10/22 12:45:14;;;;;;;;;;;15.00;99.90;;;;;;5057433;28;20410;-76
2022/10/22 12:47:45;;;;;;;;;;;15.00;99.90;;;;;;5065143;28;20290;-77
2022/10/22 12:50:16;;;;;;;;;;;15.00;99.90;;;;;;5062930;28;19928;-76
2022/10/22 12:52:43;;;;;;;;;;;15.00;99.90;;;;;;5066122;28;20377;-76
2022/10/22 12:55:14;;;;;;;;;;;15.00;99.90;;;;;;5062715;28;20817;-77
2022/10/22 12:57:42;;;;;;;;;;;15.00;99.90;;;;;;5069768;28;19928;-81
2022/10/22 13:00:22;;;;;;;;;;;15.00;99.90;;;;;;5059085;28;19931;-77
2022/10/22 13:02:49;;;;;;;;;;;15.00;99.90;;;;;;5054139;28;19936;-77
2022/10/22 13:05:21;;;;;;;;;;;15.10;99.90;;;;;;5052584;28;20305;-76
2022/10/22 13:07:49;;;;;;;;;;;15.10;99.90;;;;;;5062371;28;19925;-77
2022/10/22 13:10:18;;;;;;;;;;;15.10;99.90;;;;;;5057857;28;20327;-77
2022/10/22 13:12:49;;;;;;;;;;;15.10;99.90;;;;;;5068017;28;20285;-77
2022/10/22 13:15:20;;;;;;;;;;;15.20;99.90;;;;;;5093586;28;19931;-76
2022/10/22 13:17:47;;;;;;;;;;;15.20;99.90;;;;;;5063899;28;19929;-76
2022/10/22 13:20:20;;;;;;;;;;;15.20;99.90;;;;;;5054146;28;19937;-76
2022/10/22 13:22:54;;;;;;;;;;;15.30;99.90;;;;;;5061011;28;20390;-77
2022/10/22 13:25:23;;;;;;;;;;;15.30;99.90;;;;;;5064701;28;19968;-77
2022/10/22 13:27:51;;;;;;;;;;;15.30;99.90;;;;;;5059646;28;19947;-77
2022/10/22 13:30:19;;;;;;;;;;;15.30;99.90;;;;;;5060364;28;19998;-76
2022/10/22 13:32:49;;;;;;;;;;;15.40;99.90;;;;;;5063689;28;19924;-76
2022/10/22 13:35:17;;;;;;;;;;;15.40;99.90;;;;;;5064636;28;19955;-76
2022/10/22 13:37:45;;;;;;;;;;;15.40;99.90;;;;;;5087772;28;20291;-77
2022/10/22 13:40:12;;;;;;;;;;;15.50;99.90;;;;;;5064424;28;20422;-76
2022/10/22 13:42:39;;;;;;;;;;;15.50;99.90;;;;;;5076493;28;19978;-77
2022/10/22 13:45:06;;;;;;;;;;;15.50;99.90;;;;;;5065511;28;20383;-77
2022/10/22 13:47:33;;;;;;;;;;;15.50;99.90;;;;;;5062438;28;19935;-76
2022/10/22 13:50:01;;;;;;;;;;;15.60;99.90;;;;;;5065381;28;20391;-77
2022/10/22 13:52:31;;;;;;;;;;;15.60;99.90;;;;;;5079964;28;19962;-76
2022/10/22 13:54:59;;;;;;;;;;;15.60;99.90;;;;;;5058764;28;20716;-77
2022/10/22 13:57:26;;;;;;;;;;;15.70;99.90;;;;;;5063914;28;19956;-77
2022/10/22 13:59:53;;;;;;;;;;;15.70;99.90;;;;;;5064491;28;19935;-76
2022/10/22 14:02:23;;;;;;;;;;;15.70;99.90;;;;;;5058334;28;20023;-76
2022/10/22 14:04:50;;;;;;;;;;;15.70;99.90;;;;;;5067397;28;20404;-76
2022/10/22 14:07:17;;;;;;;;;;;15.70;99.90;;;;;;5069464;28;19948;-77
2022/10/22 14:09:44;;;;;;;;;;;15.70;99.90;;;;;;5066800;28;19932;-77
2022/10/22 14:12:14;;;;;;;;;;;15.70;99.90;;;;;;5066104;28;19982;-76
2022/10/22 14:14:40;;;;;;;;;;;15.70;99.90;;;;;;5063345;28;19928;-77
2022/10/22 14:17:11;;;;;;;;;;;15.80;99.90;;;;;;5065196;28;20400;-76
2022/10/22 14:19:37;;;;;;;;;;;15.80;99.90;;;;;;5062376;28;20355;-76
2022/10/22 14:22:04;;;;;;;;;;;15.80;99.90;;;;;;5065498;28;20375;-77
2022/10/22 14:24:31;;;;;;;;;;;15.80;99.90;;;;;;5060206;28;20898;-77